Time;durP1;ratioP1;P1;durP2;ratioP2;P2;SDS_P1;SDS_P2;PMS_P1;PMS_P2;Temp;Humidity;BMP_temperature;BMP_pressure;BME280_temperature;BME280_humidity;BME280_pressure;Samples;Min_cycle;Max_cycle;Signal;HPM_P1;HPM_P2
2021/10/17 00:00:33;;;;;;;23.27;21.07;;;10.20;93.10;;;;;;5031600;28;20202;-89
2021/10/17 00:02:59;;;;;;;20.77;18.77;;;10.10;93.80;;;;;;5044028;28;20257;-89
2021/10/17 00:05:28;;;;;;;22.53;20.23;;;10.00;94.40;;;;;;5030032;28;20678;-89
2021/10/17 00:07:55;;;;;;;18.33;16.73;;;10.20;93.70;;;;;;5030013;28;20195;-90
2021/10/17 00:10:27;;;;;;;21.27;19.27;;;10.20;93.20;;;;;;5045913;28;20216;-90
2021/10/17 00:12:55;;;;;;;20.93;19.00;;;10.30;92.70;;;;;;5012255;28;20846;-89
2021/10/17 00:15:22;;;;;;;20.30;18.40;;;10.40;92.30;;;;;;5038473;28;20271;-90
2021/10/17 00:17:48;;;;;;;21.30;19.20;;;10.50;92.10;;;;;;5049468;28;20206;-90
2021/10/17 00:20:17;;;;;;;20.20;18.33;;;10.40;92.50;;;;;;5051200;28;20195;-90
2021/10/17 00:22:43;;;;;;;21.93;19.73;;;10.50;92.10;;;;;;5032191;28;20222;-90
2021/10/17 00:25:11;;;;;;;21.80;19.60;;;10.60;91.50;;;;;;5035732;28;20195;-91
2021/10/17 00:27:38;;;;;;;19.00;17.23;;;10.70;91.50;;;;;;5046444;28;20191;-90
2021/10/17 00:30:05;;;;;;;21.70;19.57;;;10.70;91.00;;;;;;5051256;28;20750;-90
2021/10/17 00:32:30;;;;;;;18.87;16.97;;;10.80;90.90;;;;;;5054305;28;20877;-90
2021/10/17 00:34:58;;;;;;;22.20;20.10;;;10.80;91.10;;;;;;5047111;28;20191;-91
2021/10/17 00:37:27;;;;;;;21.63;19.43;;;10.80;90.80;;;;;;5009638;28;20195;-91
2021/10/17 00:39:52;;;;;;;25.17;22.77;;;10.80;90.90;;;;;;5034082;28;20200;-91
2021/10/17 00:42:18;;;;;;;24.60;22.20;;;10.70;91.80;;;;;;5032676;28;20211;-91
2021/10/17 00:44:44;;;;;;;25.13;22.63;;;10.70;92.30;;;;;;5047269;28;20675;-90
2021/10/17 00:47:10;;;;;;;24.40;22.10;;;10.60;93.20;;;;;;5013578;28;20271;-90
2021/10/17 00:49:35;;;;;;;24.73;22.33;;;10.40;93.80;;;;;;5012439;28;20249;-90
2021/10/17 00:52:02;;;;;;;21.90;19.80;;;10.30;94.80;;;;;;5044179;28;20926;-91
2021/10/17 00:54:28;;;;;;;24.67;22.10;;;10.40;94.30;;;;;;5047981;28;20211;-90
2021/10/17 00:56:53;;;;;;;26.67;23.87;;;10.40;94.20;;;;;;5048714;28;20188;-90
2021/10/17 00:59:19;;;;;;;26.93;24.23;;;10.40;95.30;;;;;;5046658;28;20207;-90
2021/10/17 01:01:45;;;;;;;24.97;22.53;;;10.30;95.90;;;;;;5030776;28;20217;-90
2021/10/17 01:04:10;;;;;;;26.80;23.90;;;10.10;96.50;;;;;;5049030;28;20215;-91
2021/10/17 01:06:37;;;;;;;27.73;23.57;;;10.10;96.70;;;;;;5046801;28;20214;-90
2021/10/17 01:09:04;;;;;;;24.23;21.73;;;10.10;97.20;;;;;;5029862;28;20313;-91
2021/10/17 01:11:46;;;;;;;23.90;21.50;;;10.20;96.80;;;;;;5035340;28;20652;-91
2021/10/17 01:14:16;;;;;;;25.23;22.67;;;10.20;96.50;;;;;;5047123;28;20213;-90
2021/10/17 01:16:42;;;;;;;24.63;22.03;;;10.30;97.40;;;;;;5029031;28;20607;-90
2021/10/17 01:19:07;;;;;;;21.90;19.70;;;10.40;96.20;;;;;;5046691;28;20293;-91
2021/10/17 01:21:36;;;;;;;22.83;20.53;;;10.50;96.10;;;;;;5049065;28;20537;-91
2021/10/17 01:24:01;;;;;;;22.00;19.90;;;10.60;95.20;;;;;;5046205;28;20213;-91
2021/10/17 01:26:27;;;;;;;21.73;19.33;;;10.70;94.60;;;;;;5013625;28;20202;-90
2021/10/17 01:28:53;;;;;;;20.93;18.83;;;10.70;94.40;;;;;;5030663;28;20206;-90
2021/10/17 01:31:19;;;;;;;20.83;18.83;;;10.70;94.10;;;;;;5047037;28;20238;-91
2021/10/17 01:33:44;;;;;;;20.43;18.43;;;10.80;93.70;;;;;;5038776;28;20227;-90
2021/10/17 01:36:10;;;;;;;21.80;19.70;;;10.90;93.50;;;;;;5024380;28;20200;-90
2021/10/17 01:38:36;;;;;;;21.07;18.97;;;11.00;92.90;;;;;;5047247;28;20285;-90
2021/10/17 01:41:02;;;;;;;23.43;21.13;;;10.90;93.00;;;;;;5047611;28;20309;-91
2021/10/17 01:43:27;;;;;;;19.30;17.43;;;10.90;93.10;;;;;;5065736;28;20230;-90
2021/10/17 01:45:53;;;;;;;21.53;19.33;;;11.00;93.50;;;;;;5052219;28;20188;-90
2021/10/17 01:48:19;;;;;;;21.00;18.97;;;11.00;92.80;;;;;;5032606;28;20251;-91
2021/10/17 01:50:45;;;;;;;22.47;20.33;;;11.00;93.50;;;;;;5050302;28;20923;-91
2021/10/17 01:53:10;;;;;;;21.70;19.60;;;11.10;93.30;;;;;;5029646;28;20631;-90
2021/10/17 01:55:36;;;;;;;22.03;19.40;;;11.10;92.60;;;;;;5027216;28;20292;-90
2021/10/17 01:58:02;;;;;;;22.43;20.37;;;11.00;93.10;;;;;;5045280;28;20309;-90
2021/10/17 02:00:28;;;;;;;20.40;18.43;;;10.90;93.70;;;;;;5045671;28;20210;-91
2021/10/17 02:02:53;;;;;;;20.10;18.03;;;10.80;94.10;;;;;;5030259;28;20243;-91
2021/10/17 02:05:19;;;;;;;21.50;19.23;;;10.90;93.40;;;;;;5047005;28;20559;-91
2021/10/17 02:07:45;;;;;;;19.87;18.00;;;10.90;93.40;;;;;;5037264;28;20255;-90
2021/10/17 02:10:10;;;;;;;22.67;20.33;;;11.00;93.00;;;;;;5071266;28;20227;-90
2021/10/17 02:12:36;;;;;;;22.20;20.00;;;10.90;93.40;;;;;;5050037;28;20299;-90
2021/10/17 02:15:05;;;;;;;20.80;18.77;;;10.80;93.70;;;;;;5028132;28;20271;-91
2021/10/17 02:17:31;;;;;;;22.80;20.40;;;10.90;93.20;;;;;;5039559;28;20252;-91
2021/10/17 02:19:58;;;;;;;23.37;21.07;;;10.90;93.50;;;;;;5058722;28;20195;-91
2021/10/17 02:22:24;;;;;;;21.73;19.63;;;10.80;94.10;;;;;;5036448;28;20290;-90
2021/10/17 02:24:49;;;;;;;23.33;21.03;;;10.70;95.30;;;;;;5063283;28;20241;-88
2021/10/17 02:27:15;;;;;;;21.57;19.43;;;10.80;94.00;;;;;;5046585;28;20256;-89
2021/10/17 02:29:41;;;;;;;19.20;16.93;;;10.80;94.30;;;;;;5039401;28;20608;-91
2021/10/17 02:32:06;;;;;;;20.50;18.40;;;10.80;94.30;;;;;;5050440;28;20195;-88
2021/10/17 02:34:33;;;;;;;18.70;16.83;;;10.90;94.60;;;;;;5053098;28;20210;-89
2021/10/17 02:36:59;;;;;;;20.50;18.50;;;11.00;93.30;;;;;;5067527;28;20231;-89
2021/10/17 02:39:24;;;;;;;20.37;18.40;;;11.00;92.80;;;;;;5033780;28;20192;-91
2021/10/17 02:41:50;;;;;;;20.10;18.20;;;11.10;92.60;;;;;;5051739;28;20716;-89
2021/10/17 02:44:16;;;;;;;20.77;18.67;;;11.10;92.50;;;;;;5034572;28;20231;-89
2021/10/17 02:46:42;;;;;;;21.90;19.90;;;11.00;92.60;;;;;;5058882;28;20192;-89
2021/10/17 02:49:08;;;;;;;22.13;19.80;;;11.00;92.70;;;;;;5055463;28;20212;-89
2021/10/17 02:51:34;;;;;;;19.47;17.57;;;11.10;92.60;;;;;;5051432;28;20206;-90
2021/10/17 02:53:59;;;;;;;19.40;17.60;;;11.10;92.60;;;;;;5052415;28;20215;-90
2021/10/17 02:56:25;;;;;;;21.10;18.87;;;11.10;92.60;;;;;;5054903;28;20259;-90
2021/10/17 02:58:51;;;;;;;20.60;18.60;;;11.10;92.30;;;;;;5052209;28;20196;-90
2021/10/17 03:01:16;;;;;;;20.97;18.83;;;11.20;91.90;;;;;;5055488;28;20261;-90
2021/10/17 03:03:42;;;;;;;19.97;17.93;;;11.20;91.40;;;;;;5053367;28;20292;-90
2021/10/17 03:06:08;;;;;;;22.93;20.73;;;11.20;91.40;;;;;;5052889;28;20234;-90
2021/10/17 03:08:34;;;;;;;22.20;19.93;;;11.30;91.40;;;;;;5054462;28;20191;-90
2021/10/17 03:10:59;;;;;;;20.43;18.43;;;11.30;92.10;;;;;;5042460;28;20734;-90
2021/10/17 03:13:25;;;;;;;20.57;18.70;;;11.20;92.40;;;;;;5048708;28;20219;-90
2021/10/17 03:15:51;;;;;;;20.53;18.53;;;11.20;92.80;;;;;;5046645;28;20189;-90
2021/10/17 03:18:17;;;;;;;22.17;20.03;;;11.20;92.60;;;;;;5049018;28;20208;-90
2021/10/17 03:20:42;;;;;;;23.40;20.90;;;11.20;92.30;;;;;;5042189;28;20195;-90
2021/10/17 03:23:08;;;;;;;22.17;20.10;;;11.30;91.80;;;;;;5052761;28;20772;-90
2021/10/17 03:25:34;;;;;;;22.63;20.20;;;11.20;91.90;;;;;;5056928;28;20221;-90
2021/10/17 03:27:59;;;;;;;21.07;19.00;;;11.20;92.80;;;;;;5039601;28;20221;-90
2021/10/17 03:30:25;;;;;;;24.03;21.53;;;11.20;93.40;;;;;;5054281;28;20228;-89
2021/10/17 03:32:51;;;;;;;21.27;19.00;;;11.10;93.40;;;;;;5022284;28;20722;-90
2021/10/17 03:35:17;;;;;;;24.37;21.30;;;11.10;93.60;;;;;;5055601;28;21502;-90
2021/10/17 03:37:42;;;;;;;22.93;20.60;;;11.10;93.70;;;;;;5052769;28;20200;-89
2021/10/17 03:40:08;;;;;;;21.07;19.10;;;11.00;94.00;;;;;;5052385;28;20754;-90
2021/10/17 03:42:34;;;;;;;20.57;18.47;;;11.00;94.30;;;;;;5054772;28;20270;-90
2021/10/17 03:45:00;;;;;;;21.73;19.43;;;11.00;94.20;;;;;;5054256;28;20192;-90
2021/10/17 03:47:26;;;;;;;21.73;19.40;;;11.00;94.40;;;;;;5036637;28;20188;-90
2021/10/17 03:49:51;;;;;;;21.70;19.43;;;11.00;94.50;;;;;;5055644;28;20219;-90
2021/10/17 03:52:17;;;;;;;21.77;19.67;;;11.00;94.30;;;;;;5071552;28;20188;-89
2021/10/17 03:54:44;;;;;;;22.27;20.03;;;11.00;94.10;;;;;;5056751;28;20700;-90
2021/10/17 03:57:10;;;;;;;24.47;21.30;;;11.00;94.10;;;;;;5057166;28;20195;-90
2021/10/17 03:59:36;;;;;;;23.90;21.40;;;11.00;94.10;;;;;;5052469;28;20297;-90
2021/10/17 04:02:02;;;;;;;24.73;22.17;;;10.90;94.10;;;;;;5041935;28;20208;-90
2021/10/17 04:04:27;;;;;;;23.20;20.73;;;10.90;94.40;;;;;;5044825;28;20214;-90
2021/10/17 04:06:53;;;;;;;27.63;23.00;;;10.90;94.50;;;;;;5052083;28;20713;-89
2021/10/17 04:09:19;;;;;;;29.63;25.23;;;10.90;94.20;;;;;;5056006;28;20227;-89
2021/10/17 04:11:47;;;;;;;30.40;24.03;;;10.80;94.70;;;;;;5052576;28;20215;-90
2021/10/17 04:14:14;;;;;;;29.70;25.43;;;10.70;94.60;;;;;;5058939;28;20224;-90
2021/10/17 04:16:40;;;;;;;30.93;25.67;;;10.70;94.50;;;;;;5053965;28;20191;-90
2021/10/17 04:19:06;;;;;;;31.07;24.23;;;10.80;94.20;;;;;;5032021;28;20549;-90
2021/10/17 04:21:31;;;;;;;29.00;24.20;;;10.70;94.30;;;;;;5049717;28;20195;-90
2021/10/17 04:23:57;;;;;;;28.00;22.63;;;10.80;94.30;;;;;;5052668;28;20228;-90
2021/10/17 04:26:23;;;;;;;27.97;23.80;;;10.80;94.10;;;;;;5051814;28;20207;-90
2021/10/17 04:28:48;;;;;;;28.37;23.70;;;10.80;94.80;;;;;;5049153;28;20199;-90
2021/10/17 04:31:14;;;;;;;28.67;23.70;;;10.70;93.80;;;;;;5052931;28;20213;-89
2021/10/17 04:33:40;;;;;;;33.67;26.33;;;10.70;94.30;;;;;;5020609;28;20211;-90
2021/10/17 04:36:06;;;;;;;26.27;21.87;;;10.60;94.10;;;;;;5024356;28;20202;-89
2021/10/17 04:38:32;;;;;;;31.97;24.70;;;10.50;95.40;;;;;;5051362;28;20205;-90
2021/10/17 04:40:58;;;;;;;33.80;25.37;;;10.60;93.90;;;;;;5052533;28;20318;-90
2021/10/17 04:43:24;;;;;;;31.83;24.27;;;10.60;93.60;;;;;;5031661;28;20233;-90
2021/10/17 04:45:50;;;;;;;28.70;23.07;;;10.60;93.70;;;;;;5051686;28;20202;-90
2021/10/17 04:48:15;;;;;;;31.33;24.47;;;10.60;93.70;;;;;;5051625;28;20206;-90
2021/10/17 04:50:41;;;;;;;27.33;22.80;;;10.60;93.80;;;;;;5027253;28;20211;-90
2021/10/17 04:53:07;;;;;;;25.03;21.97;;;10.60;94.10;;;;;;5038041;28;20213;-89
2021/10/17 04:55:32;;;;;;;26.67;21.67;;;10.60;94.30;;;;;;5048297;28;20240;-90
2021/10/17 04:57:58;;;;;;;28.60;23.07;;;10.60;93.80;;;;;;5039261;28;20269;-90
2021/10/17 05:00:24;;;;;;;29.37;23.67;;;10.70;93.80;;;;;;5025947;28;20569;-90
2021/10/17 05:02:49;;;;;;;31.83;23.63;;;10.60;93.80;;;;;;5036419;28;20269;-90
2021/10/17 05:05:15;;;;;;;30.53;23.77;;;10.50;94.20;;;;;;5051249;28;20194;-90
2021/10/17 05:07:43;;;;;;;27.87;22.47;;;10.50;94.40;;;;;;5048885;28;20563;-90
2021/10/17 05:10:09;;;;;;;28.40;23.30;;;10.50;94.50;;;;;;5015085;28;20215;-90
2021/10/17 05:12:35;;;;;;;24.80;21.77;;;10.50;94.90;;;;;;5030727;28;20217;-90
2021/10/17 05:15:00;;;;;;;31.90;24.07;;;10.50;94.70;;;;;;5032287;28;20213;-89
2021/10/17 05:17:26;;;;;;;27.47;23.40;;;10.50;94.20;;;;;;5028830;28;20200;-90
2021/10/17 05:19:52;;;;;;;27.33;23.93;;;10.50;94.40;;;;;;5049734;28;20677;-90
2021/10/17 05:22:17;;;;;;;24.90;21.93;;;10.50;95.10;;;;;;5050687;28;20276;-90
2021/10/17 05:24:43;;;;;;;27.63;22.43;;;10.50;94.90;;;;;;5015556;28;20271;-90
2021/10/17 05:27:09;;;;;;;27.03;23.77;;;10.50;94.70;;;;;;5048488;28;20202;-89
2021/10/17 05:29:34;;;;;;;26.73;22.93;;;10.60;94.10;;;;;;5032170;28;20214;-89
2021/10/17 05:32:00;;;;;;;24.77;21.07;;;10.60;93.90;;;;;;5023519;28;20687;-90
2021/10/17 05:34:25;;;;;;;23.13;20.83;;;10.60;93.90;;;;;;5056231;28;20234;-89
2021/10/17 05:36:51;;;;;;;22.07;19.37;;;10.60;94.00;;;;;;5047512;28;20254;-90
2021/10/17 05:39:17;;;;;;;24.27;21.10;;;10.60;93.90;;;;;;5037672;28;20288;-89
2021/10/17 05:41:42;;;;;;;25.07;21.67;;;10.50;94.50;;;;;;5052043;28;20194;-90
2021/10/17 05:44:08;;;;;;;25.73;22.43;;;10.50;94.80;;;;;;5051257;28;20651;-90
2021/10/17 05:46:34;;;;;;;24.43;21.10;;;10.60;94.60;;;;;;5034815;28;20616;-90
2021/10/17 05:48:59;;;;;;;25.27;21.53;;;10.60;94.30;;;;;;5051189;28;20217;-90
2021/10/17 05:51:25;;;;;;;25.53;22.27;;;10.70;94.10;;;;;;5031736;28;20229;-89
2021/10/17 05:53:51;;;;;;;26.93;21.83;;;10.70;93.80;;;;;;5040556;28;20303;-90
2021/10/17 05:56:16;;;;;;;27.27;22.80;;;10.80;93.60;;;;;;5063606;28;20199;-89
2021/10/17 05:58:42;;;;;;;26.67;22.83;;;10.80;93.90;;;;;;5031619;28;20203;-88
2021/10/17 06:01:08;;;;;;;25.43;22.30;;;10.70;94.50;;;;;;5038949;28;20194;-88
2021/10/17 06:03:33;;;;;;;26.27;22.40;;;10.60;94.90;;;;;;5051446;28;20230;-88
2021/10/17 06:06:02;;;;;;;30.33;23.73;;;10.60;94.70;;;;;;5014683;28;20205;-88
2021/10/17 06:08:32;;;;;;;28.07;24.07;;;10.60;95.30;;;;;;5050135;28;20206;-88
2021/10/17 06:10:58;;;;;;;26.33;21.30;;;10.50;95.40;;;;;;5051008;28;20218;-88
2021/10/17 06:13:23;;;;;;;27.83;21.40;;;10.50;95.40;;;;;;5026043;28;20211;-88
2021/10/17 06:15:49;;;;;;;28.43;22.77;;;10.70;95.80;;;;;;5020712;28;20567;-87
2021/10/17 06:18:15;;;;;;;27.77;22.30;;;10.70;94.50;;;;;;5051696;28;20194;-87
2021/10/17 06:20:40;;;;;;;27.57;23.03;;;10.60;95.30;;;;;;5048727;28;20196;-88
2021/10/17 06:23:06;;;;;;;27.67;23.10;;;10.60;95.20;;;;;;5044592;28;20221;-87
2021/10/17 06:25:32;;;;;;;29.13;22.40;;;10.70;94.90;;;;;;5044144;28;20194;-87
2021/10/17 06:27:59;;;;;;;29.53;23.63;;;10.60;95.10;;;;;;5047489;28;20207;-87
2021/10/17 06:30:25;;;;;;;23.20;20.70;;;10.60;95.00;;;;;;5043985;28;20211;-88
2021/10/17 06:32:50;;;;;;;27.77;23.30;;;10.60;95.50;;;;;;5042218;28;20226;-87
2021/10/17 06:35:16;;;;;;;26.13;20.80;;;10.70;95.20;;;;;;5043676;28;20183;-88
2021/10/17 06:37:42;;;;;;;27.50;23.30;;;10.80;95.00;;;;;;5029613;28;20186;-88
2021/10/17 06:40:08;;;;;;;26.73;21.27;;;10.70;94.90;;;;;;5047204;28;20206;-87
2021/10/17 06:42:34;;;;;;;26.20;20.83;;;10.70;95.20;;;;;;5049141;28;20218;-88
2021/10/17 06:45:00;;;;;;;28.03;22.57;;;10.60;95.40;;;;;;5044242;28;20203;-88
2021/10/17 06:47:25;;;;;;;30.53;23.60;;;10.60;95.20;;;;;;5021920;28;20203;-89
2021/10/17 06:49:51;;;;;;;31.50;23.57;;;10.50;95.90;;;;;;5046453;28;20206;-88
2021/10/17 06:52:17;;;;;;;28.47;22.50;;;10.40;96.60;;;;;;5054912;28;20649;-89
2021/10/17 06:54:43;;;;;;;28.03;22.67;;;10.40;97.20;;;;;;5052998;28;20196;-90
2021/10/17 06:57:08;;;;;;;27.60;21.93;;;10.40;97.20;;;;;;5052541;28;20186;-90
2021/10/17 06:59:34;;;;;;;24.83;20.80;;;10.40;97.00;;;;;;5052348;28;20207;-90
2021/10/17 07:02:00;;;;;;;26.67;22.73;;;10.40;97.20;;;;;;5028677;28;20201;-89
2021/10/17 07:04:25;;;;;;;28.20;23.23;;;10.40;97.20;;;;;;5034800;28;20248;-88
2021/10/17 07:06:51;;;;;;;27.77;23.27;;;10.50;96.70;;;;;;5054456;28;20198;-88
2021/10/17 07:09:17;;;;;;;29.90;23.20;;;10.60;96.40;;;;;;5049728;28;20215;-88
2021/10/17 07:11:43;;;;;;;29.60;23.80;;;10.60;96.30;;;;;;5039940;28;20196;-89
2021/10/17 07:14:09;;;;;;;26.70;23.67;;;10.60;96.20;;;;;;5034887;28;20205;-89
2021/10/17 07:16:35;;;;;;;30.57;25.13;;;10.60;95.70;;;;;;5037284;28;20251;-88
2021/10/17 07:19:01;;;;;;;30.23;24.67;;;10.60;95.70;;;;;;5053701;28;20188;-89
2021/10/17 07:21:26;;;;;;;33.27;25.70;;;10.60;96.30;;;;;;5036933;28;20197;-90
2021/10/17 07:23:52;;;;;;;31.77;25.17;;;10.60;96.70;;;;;;5055875;28;20210;-90
2021/10/17 07:26:18;;;;;;;24.97;20.80;;;10.50;97.20;;;;;;5037136;28;20588;-91
2021/10/17 07:28:43;;;;;;;26.07;22.60;;;10.50;96.20;;;;;;5045836;28;20205;-91
2021/10/17 07:31:09;;;;;;;29.40;23.70;;;10.70;96.70;;;;;;5047877;28;20237;-90
2021/10/17 07:33:36;;;;;;;25.50;22.13;;;10.70;96.20;;;;;;5054708;28;20229;-90
2021/10/17 07:36:01;;;;;;;29.00;23.70;;;10.70;95.80;;;;;;5014126;28;20194;-91
2021/10/17 07:38:27;;;;;;;25.93;21.77;;;10.70;95.50;;;;;;5030257;28;20206;-91
2021/10/17 07:40:53;;;;;;;27.57;23.30;;;10.70;95.10;;;;;;5015015;28;20210;-90
2021/10/17 07:43:21;;;;;;;26.57;22.77;;;10.80;95.20;;;;;;5050301;28;20219;-90
2021/10/17 07:45:47;;;;;;;25.80;21.93;;;10.80;95.10;;;;;;5044339;28;20207;-90
2021/10/17 07:48:12;;;;;;;26.63;20.83;;;10.80;95.60;;;;;;5031285;28;20198;-90
2021/10/17 07:50:38;;;;;;;26.67;21.53;;;10.90;95.70;;;;;;5022353;28;20226;-91
2021/10/17 07:53:04;;;;;;;24.20;20.40;;;10.80;95.50;;;;;;5041480;28;20663;-91
2021/10/17 07:55:30;;;;;;;20.93;18.50;;;10.80;94.90;;;;;;5049933;28;20256;-91
2021/10/17 07:57:56;;;;;;;24.57;21.10;;;10.70;96.30;;;;;;5033752;28;20188;-91
2021/10/17 08:00:25;;;;;;;19.63;17.53;;;10.80;95.90;;;;;;5045006;28;20190;-92
2021/10/17 08:02:51;;;;;;;19.60;17.40;;;10.80;95.90;;;;;;5042520;28;20219;-91
2021/10/17 08:05:17;;;;;;;22.70;18.30;;;10.90;95.20;;;;;;5041706;28;20253;-90
2021/10/17 08:07:43;;;;;;;21.73;19.30;;;11.00;94.70;;;;;;5051995;28;20222;-91
2021/10/17 08:10:10;;;;;;;20.37;18.17;;;11.00;94.60;;;;;;5051883;28;20202;-89
2021/10/17 08:12:36;;;;;;;22.87;19.17;;;11.00;94.50;;;;;;5053553;28;20245;-89
2021/10/17 08:15:02;;;;;;;24.17;18.63;;;10.90;95.10;;;;;;5056502;28;20805;-87
2021/10/17 08:17:28;;;;;;;23.83;18.47;;;10.90;95.70;;;;;;5042853;28;20189;-88
2021/10/17 08:19:54;;;;;;;20.20;18.00;;;11.00;95.50;;;;;;5026773;28;20192;-89
2021/10/17 08:22:20;;;;;;;19.37;17.20;;;11.00;95.10;;;;;;5048210;28;20264;-89
2021/10/17 08:24:46;;;;;;;23.20;20.23;;;11.00;94.70;;;;;;5049974;28;20194;-89
2021/10/17 08:27:12;;;;;;;20.37;18.03;;;11.10;95.10;;;;;;5008559;28;20208;-88
2021/10/17 08:29:38;;;;;;;20.10;17.57;;;11.10;94.60;;;;;;5024751;28;20231;-89
2021/10/17 08:32:04;;;;;;;21.10;18.80;;;10.90;95.50;;;;;;5055657;28;20199;-89
2021/10/17 08:34:29;;;;;;;21.87;18.17;;;11.00;95.30;;;;;;5062276;28;20219;-87
2021/10/17 08:36:58;;;;;;;21.23;17.83;;;11.00;95.40;;;;;;5062241;28;20187;-87
2021/10/17 08:39:24;;;;;;;22.23;18.40;;;11.00;95.70;;;;;;5038008;28;20223;-88
2021/10/17 08:41:49;;;;;;;19.60;17.50;;;11.10;94.80;;;;;;5034098;28;20219;-89
2021/10/17 08:44:17;;;;;;;19.90;17.80;;;10.90;95.50;;;;;;5018190;28;20214;-88
2021/10/17 08:46:46;;;;;;;23.27;19.20;;;10.90;95.60;;;;;;5027335;28;20195;-87
2021/10/17 08:49:12;;;;;;;21.90;19.47;;;11.00;95.30;;;;;;5047221;28;20222;-88
2021/10/17 08:51:38;;;;;;;24.20;21.70;;;11.00;95.30;;;;;;5045918;28;20192;-90
2021/10/17 08:54:07;;;;;;;22.93;20.60;;;11.00;94.90;;;;;;5045378;28;20215;-88
2021/10/17 08:56:33;;;;;;;21.33;18.17;;;11.10;95.40;;;;;;5051873;28;20184;-89
2021/10/17 08:58:59;;;;;;;28.07;25.57;;;11.10;95.10;;;;;;5044379;28;20204;-89
2021/10/17 09:01:33;;;;;;;25.73;23.17;;;11.20;95.10;;;;;;5049091;28;20198;-87
2021/10/17 09:04:00;;;;;;;20.73;18.50;;;11.30;94.90;;;;;;5048551;28;20210;-88
2021/10/17 09:06:29;;;;;;;20.07;17.90;;;11.30;94.10;;;;;;5035134;28;20184;-88
2021/10/17 09:09:10;;;;;;;20.40;18.30;;;11.30;94.70;;;;;;5040769;28;20183;-88
2021/10/17 09:11:43;;;;;;;19.60;17.50;;;11.10;95.10;;;;;;5054891;28;20221;-87
2021/10/17 09:14:15;;;;;;;25.43;19.73;;;11.10;95.60;;;;;;5056135;28;20207;-86
2021/10/17 09:16:44;;;;;;;20.77;17.70;;;11.00;95.80;;;;;;5045208;28;20258;-87
2021/10/17 09:19:14;;;;;;;24.60;22.10;;;11.00;95.10;;;;;;5062776;28;20176;-87
2021/10/17 09:22:00;;;;;;;19.00;17.00;;;11.20;95.10;;;;;;5041907;28;20183;-87
2021/10/17 09:24:33;;;;;;;19.87;17.77;;;11.10;95.20;;;;;;5040479;28;20223;-87
2021/10/17 09:27:21;;;;;;;20.53;18.37;;;11.20;95.40;;;;;;5041931;28;20706;-87
2021/10/17 09:29:55;;;;;;;21.60;17.83;;;11.30;94.70;;;;;;5047310;28;20262;-88
2021/10/17 09:32:27;;;;;;;21.90;19.70;;;11.30;94.90;;;;;;5030794;28;20716;-86
2021/10/17 09:34:57;;;;;;;20.83;17.83;;;11.30;94.00;;;;;;5035739;28;20184;-89
2021/10/17 09:37:40;;;;;;;19.37;17.03;;;11.40;94.00;;;;;;5064865;28;20207;-86
2021/10/17 09:40:19;;;;;;;18.87;16.97;;;11.30;94.50;;;;;;5061200;28;20202;-87
2021/10/17 09:43:04;;;;;;;21.00;18.90;;;11.30;95.30;;;;;;5055316;28;20200;-88
2021/10/17 09:45:30;;;;;;;17.73;15.93;;;11.40;94.20;;;;;;5029027;28;20218;-87
2021/10/17 09:47:55;;;;;;;19.43;17.43;;;11.40;94.00;;;;;;5028632;28;20200;-87
2021/10/17 09:50:22;;;;;;;18.67;16.93;;;11.40;94.70;;;;;;5048413;28;20238;-88
2021/10/17 09:52:53;;;;;;;18.67;16.77;;;11.40;94.10;;;;;;5052713;28;20613;-88
2021/10/17 09:55:19;;;;;;;22.03;19.83;;;11.50;93.80;;;;;;5048204;28;20207;-88
2021/10/17 09:57:45;;;;;;;23.73;21.23;;;11.40;94.00;;;;;;5047453;28;20197;-87
2021/10/17 10:00:11;;;;;;;21.47;19.47;;;11.50;94.00;;;;;;5033245;28;20552;-88
2021/10/17 10:02:37;;;;;;;45.17;40.77;;;11.60;93.80;;;;;;5037097;28;20208;-87
2021/10/17 10:05:04;;;;;;;48.70;43.97;;;11.70;93.20;;;;;;5019376;28;20196;-87
2021/10/17 10:07:31;;;;;;;18.23;16.37;;;11.70;92.90;;;;;;5034433;28;20177;-87
2021/10/17 10:10:02;;;;;;;19.13;17.23;;;11.50;94.70;;;;;;5049676;28;20226;-87
2021/10/17 10:12:28;;;;;;;20.23;18.13;;;11.30;95.50;;;;;;5047391;28;20680;-87
2021/10/17 10:14:55;;;;;;;26.57;24.17;;;11.30;95.60;;;;;;5049209;28;20184;-87
2021/10/17 10:17:22;;;;;;;24.93;22.73;;;11.50;95.40;;;;;;5032965;28;20188;-86
2021/10/17 10:19:48;;;;;;;20.17;18.07;;;11.60;93.70;;;;;;5045310;28;20672;-90
2021/10/17 10:22:16;;;;;;;17.80;16.00;;;11.50;94.40;;;;;;5045363;28;20199;-87
2021/10/17 10:24:50;;;;;;;16.53;14.80;;;11.50;94.00;;;;;;5035556;28;20226;-88
2021/10/17 10:27:16;;;;;;;16.53;14.37;;;11.50;93.50;;;;;;5051844;28;20191;-88
2021/10/17 10:29:42;;;;;;;18.20;16.33;;;11.60;93.00;;;;;;5048941;28;20219;-89
2021/10/17 10:32:08;;;;;;;17.63;15.93;;;11.60;92.00;;;;;;5043929;28;20200;-88
2021/10/17 10:34:36;;;;;;;19.43;17.13;;;11.60;92.10;;;;;;5052021;28;20203;-88
2021/10/17 10:37:22;;;;;;;23.17;20.73;;;11.70;92.10;;;;;;5047837;28;20207;-88
2021/10/17 10:40:03;;;;;;;18.57;16.77;;;11.80;90.90;;;;;;5039603;28;20200;-87
2021/10/17 10:42:36;;;;;;;17.93;16.03;;;11.70;92.80;;;;;;5052599;28;20578;-88
2021/10/17 10:45:35;;;;;;;17.37;15.50;;;11.70;92.60;;;;;;5051880;28;20295;-89
2021/10/17 10:48:23;;;;;;;23.33;19.90;;;11.80;91.40;;;;;;5046521;28;20579;-88
2021/10/17 10:50:48;;;;;;;20.53;18.37;;;11.70;92.50;;;;;;5031052;28;20210;-87
2021/10/17 10:53:42;;;;;;;18.90;16.90;;;11.70;91.70;;;;;;5030963;28;20214;-88
2021/10/17 10:56:08;;;;;;;18.80;16.83;;;11.70;91.50;;;;;;5051770;28;20266;-88
2021/10/17 10:58:36;;;;;;;18.83;16.93;;;11.70;92.50;;;;;;5032043;28;20238;-88
2021/10/17 11:01:03;;;;;;;17.30;15.60;;;11.70;92.80;;;;;;5022623;28;20222;-88
2021/10/17 11:03:43;;;;;;;19.70;17.70;;;11.60;93.90;;;;;;5034163;28;20227;-88
2021/10/17 11:06:09;;;;;;;19.83;17.93;;;11.50;94.00;;;;;;5054196;28;20214;-88
2021/10/17 11:08:37;;;;;;;34.13;30.60;;;11.60;94.20;;;;;;5042793;28;20189;-88
2021/10/17 11:11:03;;;;;;;21.50;18.77;;;11.80;93.00;;;;;;5040333;28;20872;-88
2021/10/17 11:13:40;;;;;;;22.30;19.93;;;11.60;91.80;;;;;;5054498;28;20208;-89
2021/10/17 11:16:21;;;;;;;23.47;19.17;;;11.50;91.90;;;;;;5051152;28;20248;-89
2021/10/17 11:18:57;;;;;;;26.30;22.60;;;11.60;91.10;;;;;;5062891;28;20219;-88
2021/10/17 11:21:30;;;;;;;24.20;20.77;;;11.50;91.90;;;;;;5057564;28;20222;-89
2021/10/17 11:23:56;;;;;;;30.17;22.90;;;11.50;91.10;;;;;;5056815;28;20237;-88
2021/10/17 11:26:22;;;;;;;26.77;21.67;;;11.30;92.70;;;;;;5055529;28;20199;-88
2021/10/17 11:28:49;;;;;;;23.67;20.83;;;11.20;94.40;;;;;;5016907;28;20202;-88
2021/10/17 11:31:26;;;;;;;25.30;20.97;;;11.30;92.90;;;;;;5048934;28;20445;-87
2021/10/17 11:33:52;;;;;;;27.07;21.80;;;11.30;93.20;;;;;;5050399;28;20218;-87
2021/10/17 11:36:19;;;;;;;29.57;23.57;;;11.30;92.80;;;;;;5039273;28;20915;-89
2021/10/17 11:38:46;;;;;;;30.63;24.50;;;11.10;94.00;;;;;;5044065;28;20209;-90
2021/10/17 11:41:15;;;;;;;30.50;22.37;;;11.20;94.30;;;;;;5056997;28;20728;-89
2021/10/17 11:43:44;;;;;;;30.03;23.10;;;11.00;94.50;;;;;;5065725;28;20198;-90
2021/10/17 11:46:12;;;;;;;32.40;23.83;;;10.80;95.20;;;;;;5032185;28;20767;-88
2021/10/17 11:48:39;;;;;;;31.10;24.33;;;10.80;96.50;;;;;;5044765;28;20189;-90
2021/10/17 11:51:09;;;;;;;32.03;24.67;;;10.70;97.00;;;;;;5048512;28;20739;-90
2021/10/17 11:53:34;;;;;;;30.50;22.50;;;10.70;96.70;;;;;;5024488;28;20211;-90
2021/10/17 11:56:00;;;;;;;30.10;21.60;;;10.70;97.30;;;;;;5037819;28;20228;-89
2021/10/17 11:58:28;;;;;;;29.83;22.10;;;10.60;97.60;;;;;;5041149;28;20217;-89
2021/10/17 12:01:15;;;;;;;28.53;20.43;;;10.70;97.00;;;;;;5042758;28;20565;-89
2021/10/17 12:04:01;;;;;;;26.63;18.87;;;10.60;97.70;;;;;;5047587;28;20224;-90
2021/10/17 12:06:27;;;;;;;32.03;20.17;;;10.80;97.00;;;;;;5050357;28;20205;-89
2021/10/17 12:09:00;;;;;;;30.17;20.50;;;10.80;96.30;;;;;;5051516;28;20193;-90
2021/10/17 12:11:26;;;;;;;26.90;18.87;;;10.80;96.40;;;;;;5047416;28;20530;-90
2021/10/17 12:13:54;;;;;;;26.80;19.90;;;10.90;96.50;;;;;;5019080;28;20308;-90
2021/10/17 12:16:30;;;;;;;26.90;18.50;;;11.00;95.40;;;;;;5036125;28;20196;-89
2021/10/17 12:19:02;;;;;;;24.60;20.13;;;11.10;95.50;;;;;;5048090;28;20253;-89
2021/10/17 12:21:31;;;;;;;26.20;20.07;;;11.10;94.60;;;;;;5047401;28;20193;-88
2021/10/17 12:23:58;;;;;;;26.87;21.10;;;11.00;94.80;;;;;;5034148;28;20707;-89
2021/10/17 12:26:29;;;;;;;28.03;20.13;;;11.10;94.40;;;;;;5044226;28;20253;-89
2021/10/17 12:29:13;;;;;;;27.63;21.33;;;11.10;94.40;;;;;;5047322;28;20234;-90